Time;durP1;ratioP1;P1;durP2;ratioP2;P2;SDS_P1;SDS_P2;PMS_P1;PMS_P2;Temp;Humidity;BMP_temperature;BMP_pressure;BME280_temperature;BME280_humidity;BME280_pressure;Samples;Min_cycle;Max_cycle;Signal;HPM_P1;HPM_P2
2022/02/03 00:00:19;;;;;;;4.30;2.67;;;;;;;4.12;80.39;99555.09;5116861;27;41764;-85
2022/02/03 00:02:57;;;;;;;6.53;2.50;;;;;;;3.85;80.47;99525.19;5117618;27;42704;-86
2022/02/03 00:05:34;;;;;;;4.97;2.30;;;;;;;3.89;80.26;99537.31;5116950;27;39235;-88
2022/02/03 00:08:09;;;;;;;2.77;2.07;;;;;;;3.85;80.13;99540.91;5117118;27;41810;-85
2022/02/03 00:11:12;;;;;;;3.57;1.97;;;;;;;3.81;79.79;99533.19;5117030;27;41636;-86
2022/02/03 00:24:55;;;;;;;5.00;2.57;;;;;;;3.90;79.40;99554.78;5116310;27;41191;-85
2022/02/03 00:30:21;;;;;;;6.90;1.90;;;;;;;3.86;79.07;99534.78;5115128;27;41769;-85
2022/02/03 00:49:42;;;;;;;4.53;2.37;;;;;;;4.17;78.27;99547.97;5116220;27;39904;-84
2022/02/03 00:52:10;;;;;;;4.20;2.53;;;;;;;4.22;78.05;99555.72;5122071;27;41908;-86
2022/02/03 00:54:38;;;;;;;5.43;2.80;;;;;;;4.11;77.65;99526.28;5122123;27;41923;-88
2022/02/03 00:57:08;;;;;;;3.03;2.33;;;;;;;4.14;77.66;99526.22;5115509;27;41396;-86
2022/02/03 00:59:37;;;;;;;6.83;2.80;;;;;;;4.27;77.67;99538.13;5132821;27;40223;-85
2022/02/03 01:02:12;;;;;;;7.60;2.40;;;;;;;4.23;77.54;99531.22;5116474;27;40917;-86
2022/02/03 01:04:42;;;;;;;4.70;2.57;;;;;;;4.15;77.42;99517.47;5115766;27;41117;-87
2022/02/03 01:07:11;;;;;;;3.97;2.03;;;;;;;4.29;77.45;99537.19;5134347;27;42209;-86
2022/02/03 01:09:48;;;;;;;3.23;2.50;;;;;;;4.21;77.28;99518.16;5116026;27;38873;-88
2022/02/03 01:12:25;;;;;;;3.43;2.07;;;;;;;4.32;77.30;99533.63;5116421;27;40724;-87
2022/02/03 01:15:01;;;;;;;3.90;1.73;;;;;;;4.24;76.89;99511.97;5133093;27;43107;-88
2022/02/03 01:17:38;;;;;;;2.20;1.70;;;;;;;4.34;77.01;99531.78;5115953;27;41114;-85
2022/02/03 01:34:15;;;;;;;2.30;1.67;;;;;;;4.50;76.50;99547.97;5115747;27;40698;-86
2022/02/03 01:45:37;;;;;;;4.63;2.30;;;;;;;4.45;76.96;99506.13;5132761;27;40621;-85
2022/02/03 01:48:22;;;;;;;2.37;2.17;;;;;;;4.49;76.91;99499.91;5133033;27;43268;-85
2022/02/03 01:53:42;;;;;;;2.80;1.70;;;;;;;4.58;77.39;99497.03;5132929;27;40171;-88
2022/02/03 01:56:13;;;;;;;2.80;1.90;;;;;;;4.54;77.48;99479.69;5151524;27;41994;-84
2022/02/03 01:58:50;;;;;;;4.07;2.23;;;;;;;4.68;77.13;99502.91;5132198;27;43250;-86
2022/02/03 02:01:24;;;;;;;2.33;1.90;;;;;;;4.61;76.97;99482.97;5132472;27;43132;-87
2022/02/03 02:04:03;;;;;;;3.43;2.03;;;;;;;4.72;77.10;99493.16;5132669;27;38893;-84
2022/02/03 02:06:50;;;;;;;3.93;2.00;;;;;;;4.62;76.81;99477.69;5132874;27;40837;-85
2022/02/03 09:35:56;;;;;;;5.60;3.77;;;;;;;10.09;92.15;99185.06;5099831;28;40739;-84
2022/02/03 09:44:57;;;;;;;7.70;4.03;;;;;;;10.17;89.05;99176.69;5045786;28;41725;-84
2022/02/03 10:02:27;;;;;;;3.90;2.87;;;;;;;10.80;81.87;99195.19;5117620;27;43619;-84
2022/02/03 10:05:13;;;;;;;4.33;3.30;;;;;;;10.54;81.67;99142.88;5125622;27;41792;-84
2022/02/03 10:07:40;;;;;;;4.23;3.00;;;;;;;10.77;81.75;99161.78;5094389;27;40103;-84
2022/02/03 10:10:32;;;;;;;3.17;2.40;;;;;;;10.75;80.68;99137.19;5110307;27;41769;-85
2022/02/03 10:16:05;;;;;;;3.67;2.57;;;;;;;10.69;79.98;99111.06;5124758;27;42916;-84
2022/02/03 10:18:34;;;;;;;2.93;2.33;;;;;;;11.03;79.37;99146.16;5111746;27;39272;-84
2022/02/03 10:21:01;;;;;;;4.37;2.77;;;;;;;11.20;78.92;99161.06;5106919;28;42351;-82
2022/02/03 10:23:31;;;;;;;3.33;2.53;;;;;;;11.38;77.73;99173.19;5107654;28;43132;-84
2022/02/03 10:26:17;;;;;;;3.23;2.33;;;;;;;11.46;77.63;99152.38;5106781;28;41378;-84
2022/02/03 10:29:27;;;;;;;2.70;2.10;;;;;;;11.75;76.54;99153.19;5076004;28;38946;-85
2022/02/03 10:35:20;;;;;;;2.47;2.27;;;;;;;11.81;73.92;99116.56;5075231;28;44434;-84
2022/02/03 11:00:26;;;;;;;2.33;1.60;;;;;;;11.87;73.46;99072.84;5109630;28;43115;-84
2022/02/03 11:06:21;;;;;;;1.43;1.33;;;;;;;11.78;72.29;99058.38;5092308;28;38851;-83
2022/02/03 11:09:15;;;;;;;2.00;1.77;;;;;;;11.58;72.08;99042.84;5074444;28;43137;-84
2022/02/03 11:12:29;;;;;;;1.40;1.27;;;;;;;11.64;72.66;99047.75;5092490;28;42000;-84
2022/02/03 11:14:59;;;;;;;1.97;1.60;;;;;;;11.32;72.23;98986.16;5063537;28;41336;-84
2022/02/03 11:23:58;;;;;;;1.57;1.47;;;;;;;11.49;72.60;99044.31;5108702;27;43798;-83
2022/02/03 11:27:02;;;;;;;2.83;1.63;;;;;;;11.44;72.85;99029.63;5096010;28;42621;-84
2022/02/03 11:44:28;;;;;;;4.23;3.50;;;;;;;11.28;73.65;98997.06;5098542;27;42311;-83
2022/02/03 11:50:34;;;;;;;1.87;1.57;;;;;;;11.55;73.34;98979.38;5098130;27;42322;-82
2022/02/03 11:59:43;;;;;;;1.67;1.57;;;;;;;11.31;72.20;98946.50;5071370;28;42257;-83
2022/02/03 12:02:36;;;;;;;1.40;1.30;;;;;;;11.31;72.48;98943.84;5095596;28;41099;-82
2022/02/03 12:05:34;;;;;;;2.03;1.70;;;;;;;11.46;72.72;98977.34;5084330;27;40342;-82
2022/02/03 12:11:33;;;;;;;1.67;1.50;;;;;;;11.29;72.50;98932.47;5097777;27;43290;-82
2022/02/03 12:19:52;;;;;;;1.50;1.30;;;;;;;11.46;72.21;98969.38;5079664;27;40583;-82
2022/02/03 12:22:39;;;;;;;1.43;1.33;;;;;;;11.29;72.16;98919.22;5098168;27;42556;-82
2022/02/03 12:25:22;;;;;;;2.30;1.20;;;;;;;11.41;72.25;98929.03;5097700;27;41323;-82
2022/02/03 12:28:12;;;;;;;1.77;1.43;;;;;;;11.44;72.02;98940.31;5080981;27;39131;-83
2022/02/03 12:31:03;;;;;;;1.10;1.00;;;;;;;11.46;71.70;98933.09;5080845;27;43165;-80
2022/02/03 12:39:10;;;;;;;1.00;0.90;;;;;;;11.76;71.11;98930.25;5081347;28;39026;-82
2022/02/03 12:41:41;;;;;;;1.40;1.10;;;;;;;11.58;70.76;98896.97;5129984;27;41980;-84
2022/02/03 12:44:19;;;;;;;0.90;0.90;;;;;;;11.52;71.02;98878.78;5097612;27;41806;-82
2022/02/03 12:46:47;;;;;;;1.53;1.20;;;;;;;11.82;70.88;98919.25;5097594;27;41504;-82
2022/02/03 12:49:15;;;;;;;1.37;1.27;;;;;;;11.83;70.43;98926.25;5098162;27;40743;-82
2022/02/03 12:51:42;;;;;;;1.20;1.10;;;;;;;11.67;70.65;98898.16;5093699;28;41109;-83
2022/02/03 12:54:13;;;;;;;1.20;1.00;;;;;;;11.61;70.52;98883.50;5094481;28;44366;-83
2022/02/03 12:56:49;;;;;;;0.93;0.83;;;;;;;11.53;70.17;98872.53;5096422;27;41350;-82
2022/02/03 12:59:26;;;;;;;1.40;1.10;;;;;;;11.68;70.18;98887.44;5097825;27;39111;-82
2022/02/03 13:01:54;;;;;;;1.20;1.10;;;;;;;11.71;70.00;98878.44;5097962;27;42685;-82
2022/02/03 13:04:23;;;;;;;1.20;0.80;;;;;;;11.74;70.44;98884.41;5098231;27;41746;-82
2022/02/03 13:07:00;;;;;;;1.03;0.97;;;;;;;11.64;70.16;98870.03;5093113;28;41978;-81
2022/02/03 13:09:38;;;;;;;1.43;1.10;;;;;;;11.52;70.16;98860.22;5094793;27;39996;-82
2022/02/03 13:12:19;;;;;;;0.90;0.90;;;;;;;11.71;70.63;98879.28;5113477;27;41805;-82
2022/02/03 13:14:52;;;;;;;1.23;1.10;;;;;;;11.49;70.44;98847.19;5096754;27;41733;-82
2022/02/03 13:17:24;;;;;;;1.10;1.00;;;;;;;11.59;70.49;98864.19;5097898;27;42542;-82
2022/02/03 13:19:57;;;;;;;1.10;1.00;;;;;;;11.45;70.34;98849.19;5097163;27;41471;-82
2022/02/03 13:22:32;;;;;;;1.00;1.00;;;;;;;11.48;70.42;98862.25;5097592;27;42065;-83
2022/02/03 13:25:08;;;;;;;0.80;0.80;;;;;;;11.51;70.55;98866.47;5112648;27;42779;-83
2022/02/03 13:27:47;;;;;;;1.27;0.80;;;;;;;11.32;70.84;98840.34;5097253;27;43429;-82
2022/02/03 13:30:41;;;;;;;1.90;1.00;;;;;;;11.57;70.82;98866.09;5097613;27;40041;-82
2022/02/03 13:33:10;;;;;;;1.30;1.00;;;;;;;11.32;70.85;98819.13;5097928;27;40935;-82
2022/02/03 13:38:57;;;;;;;2.00;1.40;;;;;;;11.49;70.65;98818.88;5095452;27;42602;-82
2022/02/03 13:41:29;;;;;;;1.43;1.33;;;;;;;11.52;70.42;98815.16;5093912;28;38952;-82
2022/02/03 13:44:04;;;;;;;0.80;0.80;;;;;;;11.54;70.16;98826.50;5077261;28;41244;-82
2022/02/03 13:46:34;;;;;;;0.70;0.70;;;;;;;11.40;69.26;98822.13;5094724;27;44369;-82
2022/02/03 13:49:02;;;;;;;1.10;0.90;;;;;;;11.34;69.62;98806.63;5097182;27;43411;-83
2022/02/03 13:51:37;;;;;;;1.27;1.07;;;;;;;11.49;69.09;98821.53;5093331;28;39578;-83
2022/02/03 13:54:17;;;;;;;0.90;0.80;;;;;;;11.49;68.89;98828.63;5077818;28;42393;-82
2022/02/03 14:22:11;;;;;;;0.70;0.70;;;;;;;11.68;68.18;98794.59;5089538;28;42182;-82
2022/02/03 14:27:26;;;;;;;0.67;0.67;;;;;;;11.65;68.54;98760.31;5109828;27;41724;-82
2022/02/03 14:30:01;;;;;;;0.70;0.70;;;;;;;11.71;68.49;98767.88;5100059;27;41478;-82
2022/02/03 14:32:33;;;;;;;0.53;0.53;;;;;;;11.68;68.51;98752.16;5101295;27;41132;-82
2022/02/03 14:35:00;;;;;;;0.80;0.80;;;;;;;11.61;68.70;98742.94;5096834;28;39654;-82
2022/02/03 14:37:39;;;;;;;0.90;0.70;;;;;;;11.62;68.46;98760.53;5079761;28;42378;-82
2022/02/03 14:40:25;;;;;;;1.00;0.80;;;;;;;11.64;68.66;98766.56;5085879;27;41737;-82
2022/02/03 14:42:52;;;;;;;0.93;0.87;;;;;;;11.55;68.65;98750.44;5117111;27;42291;-82
2022/02/03 14:45:21;;;;;;;0.87;0.87;;;;;;;11.60;68.56;98754.50;5099913;27;40556;-82
2022/02/03 14:47:49;;;;;;;0.90;0.70;;;;;;;11.51;68.97;98731.22;5117394;27;40644;-82
2022/02/03 14:50:16;;;;;;;0.90;0.90;;;;;;;11.41;68.65;98701.84;5100448;27;41806;-82
2022/02/03 15:00:58;;;;;;;0.80;0.80;;;;;;;11.40;69.10;98725.81;5131615;27;43396;-82
2022/02/03 15:03:26;;;;;;;1.67;1.17;;;;;;;11.42;69.15;98739.81;5117441;27;42105;-83
2022/02/03 15:05:56;;;;;;;1.23;0.80;;;;;;;11.47;69.40;98756.28;5096046;28;40401;-82
2022/02/03 15:08:43;;;;;;;1.33;0.70;;;;;;;11.35;69.42;98730.59;5097083;28;43230;-82
2022/02/03 15:11:16;;;;;;;1.07;0.97;;;;;;;11.28;69.01;98721.34;5116790;27;41728;-82
2022/02/03 15:13:48;;;;;;;0.90;0.90;;;;;;;11.33;69.61;98740.44;5099932;27;42160;-82
2022/02/03 15:16:17;;;;;;;1.07;0.97;;;;;;;11.29;69.86;98741.59;5099854;27;38963;-81
2022/02/03 15:18:45;;;;;;;1.53;0.90;;;;;;;11.08;69.55;98717.38;5099411;27;43174;-82
2022/02/03 15:21:12;;;;;;;1.07;1.07;;;;;;;11.15;69.63;98708.91;5116635;27;43494;-82
2022/02/03 15:23:40;;;;;;;1.13;1.00;;;;;;;11.13;69.67;98713.47;5099613;27;41447;-83
2022/02/03 15:26:09;;;;;;;1.10;0.80;;;;;;;11.21;69.85;98738.63;5099106;27;41509;-82
2022/02/03 15:28:36;;;;;;;0.80;0.73;;;;;;;11.12;69.78;98748.91;5096038;28;40373;-82
2022/02/03 15:31:06;;;;;;;0.60;0.60;;;;;;;11.10;69.76;98745.50;5078894;28;41410;-82
2022/02/03 15:33:38;;;;;;;0.80;0.80;;;;;;;10.87;69.64;98689.69;5113518;28;41007;-82
2022/02/03 15:36:10;;;;;;;1.70;1.17;;;;;;;11.15;69.86;98722.16;5095697;27;40154;-83
2022/02/03 15:38:44;;;;;;;0.80;0.80;;;;;;;11.06;69.90;98706.03;5110358;27;41844;-82
2022/02/03 15:41:20;;;;;;;1.07;1.03;;;;;;;11.03;69.92;98688.53;5115689;27;42659;-82
2022/02/03 15:43:50;;;;;;;1.37;1.10;;;;;;;10.99;70.04;98691.50;5116244;27;43786;-82
2022/02/03 15:46:19;;;;;;;0.80;0.80;;;;;;;11.06;70.19;98695.44;5098500;27;38981;-82
